createdAt,value
2022-11-22T00:00:40.490Z,56.60
2022-11-22T00:03:07.486Z,56.50
2022-11-22T00:05:34.559Z,56.40
2022-11-22T00:08:01.291Z,56.50
2022-11-22T00:10:28.099Z,56.60
2022-11-22T00:12:54.834Z,56.60
2022-11-22T00:15:21.804Z,56.60
2022-11-22T00:17:48.523Z,56.70
2022-11-22T00:20:15.546Z,56.70
2022-11-22T00:22:44.743Z,56.70
2022-11-22T00:25:12.843Z,56.60
2022-11-22T00:27:39.826Z,56.70
2022-11-22T00:30:08.090Z,56.60
2022-11-22T00:32:34.957Z,56.70
2022-11-22T00:35:01.626Z,56.80
2022-11-22T00:37:28.886Z,56.80
2022-11-22T00:39:55.575Z,56.70
2022-11-22T00:42:22.726Z,56.60
2022-11-22T00:44:49.367Z,56.50
2022-11-22T00:47:16.675Z,56.60
2022-11-22T00:49:43.338Z,56.60
2022-11-22T00:52:10.110Z,56.70
2022-11-22T00:54:36.743Z,56.60
2022-11-22T00:57:03.512Z,56.70
2022-11-22T00:59:30.765Z,56.70
2022-11-22T01:01:57.662Z,56.70
2022-11-22T01:04:24.397Z,56.70
2022-11-22T01:06:51.030Z,56.70
2022-11-22T01:09:20.357Z,56.70
2022-11-22T01:11:47.658Z,56.80
2022-11-22T01:14:14.972Z,56.70
2022-11-22T01:16:42.600Z,56.70
2022-11-22T01:19:09.453Z,56.70
2022-11-22T01:21:36.487Z,56.70
2022-11-22T01:24:03.385Z,56.70
2022-11-22T01:26:30.143Z,56.60
2022-11-22T01:28:56.777Z,56.60
2022-11-22T01:31:23.667Z,56.60
2022-11-22T01:33:50.503Z,56.60
2022-11-22T01:36:17.219Z,56.60
2022-11-22T01:38:43.979Z,56.70
2022-11-22T01:41:10.908Z,56.70
2022-11-22T01:43:37.685Z,56.60
2022-11-22T01:46:09.328Z,56.70
2022-11-22T01:48:58.655Z,56.70
2022-11-22T01:51:29.698Z,56.90
2022-11-22T01:54:00.466Z,56.90
2022-11-22T01:56:29.588Z,57.00
2022-11-22T01:59:05.542Z,57.00
2022-11-22T02:01:32.956Z,57.10
2022-11-22T02:04:02.406Z,57.10
2022-11-22T02:06:41.288Z,57.20
2022-11-22T02:09:12.597Z,57.30
2022-11-22T02:11:45.855Z,57.40
2022-11-22T02:14:14.824Z,57.40
2022-11-22T02:16:43.487Z,57.50
2022-11-22T02:19:15.956Z,57.30
2022-11-22T02:21:45.723Z,57.30
2022-11-22T02:24:21.623Z,57.30
2022-11-22T02:26:48.494Z,57.50
2022-11-22T02:29:15.814Z,57.40
2022-11-22T02:31:47.467Z,57.40
2022-11-22T02:34:14.788Z,57.50
2022-11-22T02:36:50.309Z,57.40
2022-11-22T02:39:21.842Z,57.50
2022-11-22T02:41:49.527Z,57.40
2022-11-22T02:44:17.579Z,57.50
2022-11-22T02:46:49.347Z,57.50
2022-11-22T02:49:18.350Z,57.60
2022-11-22T02:51:45.695Z,57.70
2022-11-22T02:54:12.373Z,57.60
2022-11-22T02:56:39.252Z,57.50
2022-11-22T02:59:05.955Z,57.90
2022-11-22T03:01:33.111Z,57.40
2022-11-22T03:03:59.894Z,57.40
2022-11-22T03:06:26.790Z,57.40
2022-11-22T03:08:56.548Z,57.40
2022-11-22T03:11:24.189Z,57.30
2022-11-22T03:13:51.223Z,57.30
2022-11-22T03:16:18.088Z,57.30
2022-11-22T03:18:44.739Z,57.20
2022-11-22T03:21:12.095Z,57.20
2022-11-22T03:23:38.769Z,57.30
2022-11-22T03:26:10.682Z,57.30
2022-11-22T03:28:37.555Z,57.50
2022-11-22T03:31:07.617Z,57.40
2022-11-22T03:33:35.572Z,57.60
2022-11-22T03:36:03.383Z,57.70
2022-11-22T03:38:30.630Z,57.80
2022-11-22T03:40:57.589Z,58.00
2022-11-22T03:43:24.353Z,57.90
2022-11-22T03:45:51.080Z,57.90
2022-11-22T03:48:18.603Z,57.90
2022-11-22T03:50:46.530Z,57.80
2022-11-22T03:53:13.610Z,57.80
2022-11-22T03:55:40.235Z,57.70
2022-11-22T03:58:07.566Z,57.70
2022-11-22T04:00:35.410Z,57.70
2022-11-22T04:03:02.461Z,57.70
2022-11-22T04:05:29.117Z,57.70
2022-11-22T04:07:58.716Z,57.80
2022-11-22T04:10:26.412Z,57.80
2022-11-22T04:13:00.293Z,57.70
2022-11-22T04:15:27.642Z,57.80
2022-11-22T04:17:54.435Z,57.70
2022-11-22T04:20:42.311Z,57.70
2022-11-22T04:23:11.964Z,57.80
2022-11-22T04:25:41.183Z,57.80
2022-11-22T04:28:09.881Z,57.80
2022-11-22T04:30:55.824Z,57.80
2022-11-22T04:33:23.039Z,57.80
2022-11-22T04:35:50.807Z,57.80
2022-11-22T04:38:18.880Z,57.90
2022-11-22T04:40:46.021Z,57.90
2022-11-22T04:43:42.381Z,57.90
2022-11-22T04:46:09.174Z,58.00
2022-11-22T04:48:36.754Z,58.10
2022-11-22T04:51:22.628Z,58.00
2022-11-22T04:53:49.289Z,57.90
2022-11-22T04:56:16.015Z,57.80
2022-11-22T04:58:42.939Z,57.80
2022-11-22T05:01:10.070Z,57.70
2022-11-22T05:03:36.836Z,57.70
2022-11-22T05:06:05.692Z,57.80
2022-11-22T05:08:32.565Z,57.80
2022-11-22T05:10:59.898Z,57.70
2022-11-22T05:13:38.225Z,57.80
2022-11-22T05:16:07.767Z,58.00
2022-11-22T05:18:35.123Z,57.90
2022-11-22T05:21:10.147Z,57.90
2022-11-22T05:23:55.483Z,57.90
2022-11-22T05:26:27.550Z,57.90
2022-11-22T05:28:54.893Z,58.00
2022-11-22T05:31:23.918Z,58.00
2022-11-22T05:33:53.003Z,58.10
2022-11-22T05:36:20.383Z,58.10
2022-11-22T05:38:47.924Z,58.10
2022-11-22T05:41:16.234Z,58.20
2022-11-22T05:43:43.633Z,58.30
2022-11-22T05:46:13.047Z,58.40
2022-11-22T05:48:42.677Z,58.60
2022-11-22T05:51:11.952Z,58.80
2022-11-22T05:53:40.024Z,59.20
2022-11-22T05:56:11.835Z,59.10
2022-11-22T05:58:39.156Z,59.10
2022-11-22T06:01:08.529Z,59.10
2022-11-22T06:03:36.183Z,59.00
2022-11-22T06:06:04.392Z,59.00
2022-11-22T06:08:32.809Z,58.90
2022-11-22T06:11:13.232Z,58.70
2022-11-22T06:13:41.845Z,58.80
2022-11-22T06:16:09.632Z,58.70
2022-11-22T06:18:36.337Z,58.70
2022-11-22T06:21:06.618Z,59.20
2022-11-22T06:23:33.738Z,58.70
2022-11-22T06:26:05.824Z,58.70
2022-11-22T06:28:34.521Z,58.60
2022-11-22T06:31:02.480Z,58.60
2022-11-22T06:33:29.203Z,58.50
2022-11-22T06:36:02.591Z,58.40
2022-11-22T06:38:29.187Z,58.40
2022-11-22T06:41:00.879Z,58.20
2022-11-22T06:43:32.055Z,58.30
2022-11-22T06:46:00.239Z,58.30
2022-11-22T06:48:29.302Z,58.40
2022-11-22T06:51:18.054Z,58.40
2022-11-22T06:53:48.124Z,59.00
2022-11-22T06:56:16.760Z,58.90
2022-11-22T06:58:44.417Z,58.50
2022-11-22T07:01:25.720Z,58.50
2022-11-22T07:03:57.987Z,58.70
2022-11-22T07:06:27.296Z,58.60
2022-11-22T07:08:54.508Z,58.60
2022-11-22T07:11:26.262Z,58.60
2022-11-22T07:13:54.700Z,58.60
2022-11-22T07:16:22.205Z,58.60
2022-11-22T07:18:49.826Z,58.70
2022-11-22T07:21:19.995Z,58.80
2022-11-22T07:23:49.339Z,58.90
2022-11-22T07:26:18.031Z,58.70
2022-11-22T07:28:45.439Z,58.60
2022-11-22T07:31:13.992Z,58.60
2022-11-22T07:33:41.855Z,58.70
2022-11-22T07:36:11.396Z,58.70
2022-11-22T07:38:38.247Z,58.60
2022-11-22T07:41:05.925Z,58.60
2022-11-22T07:43:33.479Z,58.80
2022-11-22T07:46:04.968Z,58.90
2022-11-22T07:48:31.784Z,58.90
2022-11-22T07:51:07.011Z,59.00
2022-11-22T07:53:34.791Z,59.10
2022-11-22T07:56:06.472Z,59.20
2022-11-22T07:58:35.013Z,59.10
2022-11-22T08:01:13.013Z,59.10
2022-11-22T08:03:40.503Z,59.00
2022-11-22T08:06:09.538Z,59.00
2022-11-22T08:08:37.225Z,59.00
2022-11-22T08:11:05.046Z,59.00
2022-11-22T08:13:32.594Z,58.90
2022-11-22T08:16:09.265Z,59.00
2022-11-22T08:18:37.594Z,58.80
2022-11-22T08:21:06.494Z,58.70
2022-11-22T08:23:33.526Z,58.70
2022-11-22T08:26:00.220Z,58.50
2022-11-22T08:28:27.121Z,58.50
2022-11-22T08:31:03.620Z,58.20
2022-11-22T08:33:30.674Z,58.00
2022-11-22T08:35:57.371Z,58.00
2022-11-22T08:38:24.204Z,57.90
2022-11-22T08:40:51.232Z,57.70
2022-11-22T08:43:18.421Z,57.50
2022-11-22T08:45:45.097Z,57.40
2022-11-22T08:48:11.793Z,57.40
2022-11-22T08:50:38.589Z,57.50
2022-11-22T08:53:05.223Z,57.70
2022-11-22T08:55:32.132Z,57.80
2022-11-22T08:58:02.074Z,58.00
2022-11-22T09:00:33.152Z,58.20
2022-11-22T09:03:00.507Z,58.50
2022-11-22T09:05:27.548Z,58.60
2022-11-22T09:10:41.027Z,59.10
2022-11-22T09:13:07.917Z,59.10
2022-11-22T09:15:34.616Z,58.60
2022-11-22T09:18:03.262Z,57.80
2022-11-22T09:20:30.032Z,58.30
2022-11-22T09:22:56.749Z,57.70
2022-11-22T09:25:23.517Z,57.20
2022-11-22T09:27:50.285Z,57.00
2022-11-22T09:30:16.947Z,55.00
2022-11-22T09:32:44.811Z,55.70
2022-11-22T09:35:11.730Z,55.40
2022-11-22T09:37:38.443Z,53.90
2022-11-22T09:40:05.908Z,54.70
2022-11-22T09:43:01.677Z,54.70
2022-11-22T09:45:55.663Z,54.40
2022-11-22T09:48:38.047Z,54.40
2022-11-22T09:51:28.304Z,54.20
2022-11-22T09:54:06.680Z,53.60
2022-11-22T09:56:34.667Z,54.40
2022-11-22T09:59:11.568Z,54.40
2022-11-22T10:01:47.925Z,53.90
2022-11-22T10:04:26.757Z,53.80
2022-11-22T10:06:55.583Z,54.10
2022-11-22T10:09:40.969Z,54.30
2022-11-22T10:12:19.460Z,53.90
2022-11-22T10:14:53.859Z,54.40
2022-11-22T10:17:35.432Z,55.80
2022-11-22T10:20:06.987Z,55.80
2022-11-22T10:22:35.460Z,55.90
2022-11-22T10:25:12.330Z,58.30
2022-11-22T10:27:41.241Z,58.80
2022-11-22T10:30:20.016Z,57.20
2022-11-22T10:32:52.696Z,55.70
2022-11-22T10:35:44.570Z,54.40
2022-11-22T10:38:33.204Z,51.70
2022-11-22T10:41:23.687Z,49.90
2022-11-22T10:44:04.813Z,50.10
2022-11-22T10:46:56.912Z,49.10
2022-11-22T10:50:06.279Z,47.70
2022-11-22T10:52:57.482Z,46.60
2022-11-22T10:55:50.105Z,48.40
2022-11-22T10:58:53.753Z,49.10
2022-11-22T11:01:35.590Z,49.20
2022-11-22T11:04:04.789Z,49.90
2022-11-22T11:07:10.565Z,50.30
2022-11-22T11:12:35.143Z,51.00
2022-11-22T11:15:13.846Z,51.10
2022-11-22T11:17:45.333Z,51.10
2022-11-22T11:20:37.505Z,51.40
2022-11-22T11:23:14.669Z,51.50
2022-11-22T11:25:44.335Z,51.70
2022-11-22T11:28:22.735Z,51.10
2022-11-22T11:30:54.368Z,49.90
2022-11-22T11:33:38.631Z,49.50
2022-11-22T11:36:12.318Z,49.20
2022-11-22T11:38:45.161Z,48.70
2022-11-22T11:41:30.999Z,49.20
2022-11-22T11:44:34.693Z,49.30
2022-11-22T11:47:02.021Z,48.90
2022-11-22T11:49:32.015Z,49.30
2022-11-22T11:52:18.354Z,49.50
2022-11-22T11:54:47.907Z,49.60
2022-11-22T11:57:19.203Z,49.70
2022-11-22T11:59:49.565Z,50.00
2022-11-22T12:02:35.005Z,50.10
2022-11-22T12:05:06.708Z,50.20
2022-11-22T12:07:36.475Z,50.20
2022-11-22T12:10:31.653Z,50.20
2022-11-22T12:13:27.309Z,49.70
2022-11-22T12:15:58.099Z,50.00
2022-11-22T12:18:52.192Z,50.60
2022-11-22T12:22:29.465Z,50.20
2022-11-22T12:25:34.764Z,50.00
2022-11-22T12:28:18.128Z,50.30
2022-11-22T12:30:53.379Z,50.60
2022-11-22T12:33:32.456Z,50.70
2022-11-22T12:36:00.302Z,50.80
2022-11-22T12:38:33.052Z,50.90
2022-11-22T12:41:04.373Z,50.90
2022-11-22T12:43:56.666Z,50.60
2022-11-22T12:46:45.739Z,50.40
2022-11-22T12:49:24.951Z,50.70
2022-11-22T12:52:17.689Z,50.80
2022-11-22T12:54:53.565Z,50.60
2022-11-22T12:57:28.531Z,50.70
2022-11-22T13:00:06.154Z,50.80
2022-11-22T13:02:40.492Z,50.80
2022-11-22T13:05:13.496Z,50.90
2022-11-22T13:07:52.182Z,51.00
2022-11-22T13:10:45.588Z,51.00
2022-11-22T13:13:32.495Z,50.70
2022-11-22T13:16:02.821Z,51.00
2022-11-22T13:18:36.419Z,51.10
2022-11-22T13:21:17.987Z,50.80
2022-11-22T13:23:57.898Z,50.80
2022-11-22T13:26:27.527Z,50.90
2022-11-22T13:28:54.732Z,51.00
2022-11-22T13:31:21.570Z,51.10
2022-11-22T13:33:54.617Z,51.20
2022-11-22T13:36:27.333Z,51.20
2022-11-22T13:38:59.806Z,51.50
2022-11-22T13:41:34.921Z,51.80
2022-11-22T13:44:23.324Z,51.80
2022-11-22T13:46:50.031Z,51.50
2022-11-22T13:49:39.248Z,52.10
2022-11-22T13:52:12.104Z,52.00
2022-11-22T13:54:48.072Z,51.90
2022-11-22T13:57:31.470Z,51.30
2022-11-22T14:00:13.826Z,51.10
2022-11-22T14:02:47.715Z,51.00
2022-11-22T14:05:33.465Z,50.80
2022-11-22T14:08:05.635Z,49.70
2022-11-22T14:11:06.427Z,50.10
2022-11-22T14:13:52.401Z,50.50
2022-11-22T14:16:44.628Z,50.40
2022-11-22T14:19:49.118Z,50.00
2022-11-22T14:22:21.864Z,49.30
2022-11-22T14:25:13.862Z,49.90
2022-11-22T14:27:56.203Z,49.80
2022-11-22T14:30:38.532Z,49.90
2022-11-22T14:33:17.367Z,50.20
2022-11-22T14:36:06.300Z,50.20
2022-11-22T14:38:38.653Z,50.00
2022-11-22T14:41:27.803Z,50.40
2022-11-22T14:44:03.950Z,50.50
2022-11-22T14:46:53.230Z,50.70
2022-11-22T14:49:37.270Z,50.90
2022-11-22T14:52:10.240Z,50.80
2022-11-22T14:54:49.476Z,50.90
2022-11-22T14:57:20.487Z,50.80
2022-11-22T15:00:18.044Z,50.80
2022-11-22T15:03:09.675Z,50.70
2022-11-22T15:09:16.479Z,50.70
2022-11-22T15:09:19.458Z,50.50
2022-11-22T15:11:42.403Z,50.80
2022-11-22T15:14:42.423Z,50.90
2022-11-22T15:57:38.115Z,51.70
2022-11-22T16:00:21.688Z,51.70
2022-11-22T16:02:50.638Z,51.60
2022-11-22T16:06:08.912Z,51.80
2022-11-22T16:08:14.307Z,51.80
2022-11-22T16:10:42.996Z,51.80
2022-11-22T16:13:19.298Z,51.80
2022-11-22T16:16:12.599Z,51.90
2022-11-22T16:18:40.681Z,51.90
2022-11-22T16:21:11.109Z,52.00
2022-11-22T16:23:42.745Z,52.00
2022-11-22T16:26:29.223Z,52.10
2022-11-22T16:29:10.750Z,52.10
2022-11-22T16:31:39.270Z,52.10
2022-11-22T16:34:13.725Z,52.10
2022-11-22T16:36:40.372Z,52.10
2022-11-22T16:39:07.355Z,52.10
2022-11-22T16:41:34.979Z,52.10
2022-11-22T16:44:12.893Z,52.20
2022-11-22T16:46:40.595Z,52.30
2022-11-22T16:49:18.715Z,52.40
2022-11-22T16:51:46.861Z,52.50
2022-11-22T16:54:16.368Z,52.50
2022-11-22T16:56:43.226Z,52.50
2022-11-22T16:59:12.911Z,52.60
2022-11-22T17:01:44.052Z,52.50
2022-11-22T17:04:28.888Z,52.60
2022-11-22T17:06:55.690Z,52.70
2022-11-22T17:09:22.555Z,52.60
2022-11-22T17:11:49.488Z,52.60
2022-11-22T17:14:17.557Z,52.70
2022-11-22T17:16:45.949Z,52.70
2022-11-22T17:19:37.318Z,52.70
2022-11-22T17:22:00.901Z,52.70
2022-11-22T17:24:27.752Z,52.80
2022-11-22T17:26:54.588Z,52.90
2022-11-22T17:32:14.666Z,53.10
2022-11-22T17:34:41.800Z,53.10
2022-11-22T17:37:12.574Z,53.10
2022-11-22T17:39:40.080Z,53.20
2022-11-22T17:42:06.822Z,53.20
2022-11-22T17:44:34.090Z,53.20
2022-11-22T17:47:01.195Z,53.20
2022-11-22T17:49:28.646Z,53.20
2022-11-22T17:51:55.597Z,53.20
2022-11-22T17:54:22.335Z,53.20
2022-11-22T17:56:49.190Z,53.20
2022-11-22T17:59:15.845Z,53.20
2022-11-22T18:01:43.205Z,53.20
2022-11-22T18:04:10.152Z,53.20
2022-11-22T18:06:36.839Z,53.20
2022-11-22T18:09:04.120Z,53.20
2022-11-22T18:11:31.169Z,53.30
2022-11-22T18:13:57.839Z,53.30
2022-11-22T18:16:28.643Z,53.40
2022-11-22T18:18:57.467Z,53.30
2022-11-22T18:21:30.404Z,53.40
2022-11-22T18:23:58.695Z,53.40
2022-11-22T18:26:42.001Z,53.40
2022-11-22T18:29:41.315Z,53.40
2022-11-22T18:31:57.728Z,53.40
2022-11-22T18:34:24.884Z,53.40
2022-11-22T18:36:55.972Z,53.50
2022-11-22T18:39:24.720Z,53.40
2022-11-22T18:41:51.659Z,53.40
2022-11-22T18:44:18.379Z,53.50
2022-11-22T18:46:45.188Z,53.50
2022-11-22T18:49:11.806Z,53.50
2022-11-22T18:51:38.569Z,53.50
2022-11-22T18:54:05.313Z,53.60
2022-11-22T18:56:32.273Z,53.70
2022-11-22T18:58:59.388Z,53.70
2022-11-22T19:01:26.414Z,53.70
2022-11-22T19:03:53.391Z,53.70
2022-11-22T19:06:20.515Z,53.70
2022-11-22T19:08:47.567Z,53.70
2022-11-22T19:11:15.724Z,53.80
2022-11-22T19:13:43.575Z,53.80
2022-11-22T19:16:19.035Z,53.80
2022-11-22T19:18:45.891Z,53.90
2022-11-22T19:21:18.643Z,53.80
2022-11-22T19:23:46.881Z,53.80
2022-11-22T19:26:16.616Z,53.80
2022-11-22T19:28:43.676Z,53.90
2022-11-22T19:31:15.791Z,53.90
2022-11-22T19:33:42.752Z,53.90
2022-11-22T19:36:15.988Z,53.90
2022-11-22T19:38:43.308Z,53.90
2022-11-22T19:41:17.023Z,53.90
2022-11-22T19:43:44.562Z,54.00
2022-11-22T19:46:11.823Z,54.00
2022-11-22T19:48:45.369Z,53.90
2022-11-22T19:51:15.292Z,53.90
2022-11-22T19:53:42.305Z,54.00
2022-11-22T19:56:14.797Z,54.00
2022-11-22T19:58:43.114Z,54.10
2022-11-22T20:01:15.489Z,54.00
2022-11-22T20:03:43.369Z,54.00
2022-11-22T20:06:12.319Z,53.90
2022-11-22T20:08:39.699Z,54.00
2022-11-22T20:11:08.663Z,54.10
2022-11-22T20:13:40.876Z,54.20
2022-11-22T20:16:13.795Z,54.30
2022-11-22T20:18:41.032Z,54.40
2022-11-22T20:21:11.392Z,54.40
2022-11-22T20:23:38.748Z,54.50
2022-11-22T20:26:13.092Z,54.50
2022-11-22T20:28:41.472Z,54.60
2022-11-22T20:31:19.228Z,54.50
2022-11-22T20:33:48.603Z,54.70
2022-11-22T20:36:17.988Z,54.70
2022-11-22T20:38:45.912Z,54.60
2022-11-22T20:41:14.159Z,54.70
2022-11-22T20:43:41.366Z,54.70
2022-11-22T20:46:16.872Z,54.60
2022-11-22T20:48:45.162Z,54.70
2022-11-22T20:51:14.189Z,54.70
2022-11-22T20:53:41.336Z,54.70
2022-11-22T20:56:09.084Z,54.70
2022-11-22T20:58:35.803Z,54.60
2022-11-22T21:01:20.416Z,54.60
2022-11-22T21:03:47.899Z,54.60
2022-11-22T21:06:16.614Z,54.50
2022-11-22T21:08:45.761Z,54.90
2022-11-22T21:11:15.162Z,54.40
2022-11-22T21:13:42.983Z,54.40
2022-11-22T21:16:29.607Z,54.30
2022-11-22T21:19:01.727Z,54.40
2022-11-22T21:21:30.017Z,54.50
2022-11-22T21:23:59.379Z,54.40
2022-11-22T21:26:26.782Z,54.40
2022-11-22T21:28:54.277Z,54.50
2022-11-22T21:31:22.445Z,54.60
2022-11-22T21:33:49.787Z,54.70
2022-11-22T21:36:17.660Z,54.70
2022-11-22T21:38:45.725Z,54.70
2022-11-22T21:41:39.902Z,54.70
2022-11-22T21:44:04.151Z,54.70
2022-11-22T21:46:30.836Z,54.60
2022-11-22T21:48:57.788Z,54.70
2022-11-22T21:51:25.922Z,54.80
2022-11-22T21:54:00.215Z,54.80
2022-11-22T21:56:27.324Z,54.90
2022-11-22T21:58:54.330Z,54.90
2022-11-22T22:01:21.127Z,54.90
2022-11-22T22:03:47.843Z,54.90
2022-11-22T22:06:14.649Z,54.90
2022-11-22T22:08:41.362Z,54.80
2022-11-22T22:11:08.569Z,54.90
2022-11-22T22:13:35.248Z,54.80
2022-11-22T22:16:06.831Z,54.80
2022-11-22T22:18:37.759Z,54.90
2022-11-22T22:21:09.235Z,54.80
2022-11-22T22:23:38.232Z,54.70
2022-11-22T22:26:07.471Z,54.80
2022-11-22T22:28:36.615Z,54.70
2022-11-22T22:31:11.793Z,54.70
2022-11-22T22:33:40.871Z,54.80
2022-11-22T22:36:09.052Z,54.80
2022-11-22T22:38:36.269Z,54.80
2022-11-22T22:41:05.015Z,54.90
2022-11-22T22:43:37.710Z,54.90
2022-11-22T22:46:06.713Z,54.90
2022-11-22T22:48:34.365Z,54.90
2022-11-22T22:51:09.081Z,54.80
2022-11-22T22:53:36.136Z,54.90
2022-11-22T22:56:03.284Z,54.80
2022-11-22T22:58:30.359Z,54.80
2022-11-22T23:01:05.196Z,54.70
2022-11-22T23:03:32.264Z,54.70
2022-11-22T23:05:59.263Z,54.70
2022-11-22T23:08:26.212Z,54.70
2022-11-22T23:10:52.804Z,54.60
2022-11-22T23:13:19.719Z,54.60
2022-11-22T23:15:57.905Z,54.60
2022-11-22T23:18:25.943Z,54.60
2022-11-22T23:20:52.839Z,54.70
2022-11-22T23:23:19.495Z,54.70
2022-11-22T23:25:46.423Z,54.70
2022-11-22T23:28:13.055Z,54.70
2022-11-22T23:30:39.819Z,54.70
2022-11-22T23:33:06.718Z,54.70
2022-11-22T23:35:36.526Z,54.70
2022-11-22T23:38:03.463Z,54.70
2022-11-22T23:40:31.314Z,54.70
2022-11-22T23:42:58.383Z,54.70
2022-11-22T23:45:25.263Z,54.80
2022-11-22T23:47:52.688Z,54.70
2022-11-22T23:50:19.503Z,54.70
2022-11-22T23:52:46.147Z,54.70
2022-11-22T23:55:13.127Z,54.70
2022-11-22T23:57:40.053Z,54.70
